sensor_id;sensor_type;location;lat;lon;timestamp;pressure;altitude;pressure_sealevel;temperature;humidity
74524;BME280;63074;44.696;10.358;2023-02-28T00:00:50;100534.13;;;3.70;100.00
74524;BME280;63074;44.696;10.358;2023-02-28T00:03:17;100536.97;;;3.83;100.00
74524;BME280;63074;44.696;10.358;2023-02-28T00:05:43;100539.47;;;3.85;100.00
74524;BME280;63074;44.696;10.358;2023-02-28T00:08:09;100534.16;;;3.85;100.00
74524;BME280;63074;44.696;10.358;2023-02-28T00:10:36;100537.94;;;3.90;100.00
74524;BME280;63074;44.696;10.358;2023-02-28T00:13:06;100537.16;;;3.82;100.00
74524;BME280;63074;44.696;10.358;2023-02-28T00:15:33;100534.59;;;3.73;100.00
74524;BME280;63074;44.696;10.358;2023-02-28T00:17:59;100549.09;;;3.86;100.00
74524;BME280;63074;44.696;10.358;2023-02-28T00:20:26;100548.78;;;3.66;100.00
74524;BME280;63074;44.696;10.358;2023-02-28T00:22:53;100551.13;;;3.61;100.00
74524;BME280;63074;44.696;10.358;2023-02-28T00:25:22;100546.50;;;3.78;100.00
74524;BME280;63074;44.696;10.358;2023-02-28T00:27:49;100547.72;;;3.75;100.00
74524;BME280;63074;44.696;10.358;2023-02-28T00:30:18;100546.66;;;3.76;100.00
74524;BME280;63074;44.696;10.358;2023-02-28T00:32:44;100553.09;;;3.82;100.00
74524;BME280;63074;44.696;10.358;2023-02-28T00:35:12;100551.81;;;3.78;100.00
74524;BME280;63074;44.696;10.358;2023-02-28T00:37:38;100550.81;;;3.79;100.00
74524;BME280;63074;44.696;10.358;2023-02-28T00:40:05;100550.44;;;3.82;100.00
74524;BME280;63074;44.696;10.358;2023-02-28T00:42:33;100545.50;;;3.79;100.00
74524;BME280;63074;44.696;10.358;2023-02-28T00:44:59;100559.06;;;3.84;100.00
74524;BME280;63074;44.696;10.358;2023-02-28T00:47:26;100555.41;;;3.85;100.00
74524;BME280;63074;44.696;10.358;2023-02-28T00:49:52;100554.41;;;3.86;100.00
74524;BME280;63074;44.696;10.358;2023-02-28T00:52:18;100553.59;;;3.85;100.00
74524;BME280;63074;44.696;10.358;2023-02-28T00:54:44;100554.69;;;3.91;100.00
74524;BME280;63074;44.696;10.358;2023-02-28T00:57:10;100551.22;;;3.90;100.00
74524;BME280;63074;44.696;10.358;2023-02-28T00:59:36;100554.88;;;3.89;100.00
74524;BME280;63074;44.696;10.358;2023-02-28T01:02:03;100554.16;;;3.95;100.00
74524;BME280;63074;44.696;10.358;2023-02-28T01:04:29;100556.28;;;4.00;100.00
74524;BME280;63074;44.696;10.358;2023-02-28T01:06:55;100556.34;;;3.92;100.00
74524;BME280;63074;44.696;10.358;2023-02-28T01:09:21;100558.19;;;3.91;100.00
74524;BME280;63074;44.696;10.358;2023-02-28T01:11:47;100559.31;;;3.97;100.00
74524;BME280;63074;44.696;10.358;2023-02-28T01:14:15;100548.38;;;3.92;100.00
74524;BME280;63074;44.696;10.358;2023-02-28T01:16:42;100547.56;;;3.91;100.00
74524;BME280;63074;44.696;10.358;2023-02-28T01:19:08;100550.22;;;3.91;100.00
74524;BME280;63074;44.696;10.358;2023-02-28T01:21:35;100554.53;;;3.92;100.00
74524;BME280;63074;44.696;10.358;2023-02-28T01:24:02;100554.16;;;3.95;100.00
74524;BME280;63074;44.696;10.358;2023-02-28T01:26:29;100555.34;;;3.93;100.00
74524;BME280;63074;44.696;10.358;2023-02-28T01:28:55;100551.41;;;3.89;100.00
74524;BME280;63074;44.696;10.358;2023-02-28T01:31:23;100551.69;;;3.94;100.00
74524;BME280;63074;44.696;10.358;2023-02-28T01:33:49;100552.69;;;3.93;100.00
74524;BME280;63074;44.696;10.358;2023-02-28T01:36:21;100548.03;;;3.95;100.00
74524;BME280;63074;44.696;10.358;2023-02-28T01:38:49;100554.88;;;3.89;100.00
74524;BME280;63074;44.696;10.358;2023-02-28T01:41:21;100549.22;;;3.92;100.00
74524;BME280;63074;44.696;10.358;2023-02-28T01:46:15;100551.31;;;3.97;100.00
74524;BME280;63074;44.696;10.358;2023-02-28T01:48:58;100544.19;;;3.97;100.00
74524;BME280;63074;44.696;10.358;2023-02-28T01:51:51;100556.66;;;3.97;100.00
74524;BME280;63074;44.696;10.358;2023-02-28T01:54:30;100550.31;;;3.98;100.00
74524;BME280;63074;44.696;10.358;2023-02-28T01:57:03;100549.69;;;3.96;100.00
74524;BME280;63074;44.696;10.358;2023-02-28T01:59:41;100551.22;;;3.90;100.00
74524;BME280;63074;44.696;10.358;2023-02-28T02:02:18;100543.25;;;3.90;100.00
74524;BME280;63074;44.696;10.358;2023-02-28T02:07:20;100547.25;;;3.86;100.00
74524;BME280;63074;44.696;10.358;2023-02-28T02:09:47;100548.56;;;3.90;100.00
74524;BME280;63074;44.696;10.358;2023-02-28T02:13:00;100540.94;;;3.87;100.00
74524;BME280;63074;44.696;10.358;2023-02-28T02:17:52;100533.59;;;3.89;100.00
74524;BME280;63074;44.696;10.358;2023-02-28T02:32:41;100539.88;;;3.96;100.00
74524;BME280;63074;44.696;10.358;2023-02-28T02:37:52;100541.75;;;3.88;100.00
74524;BME280;63074;44.696;10.358;2023-02-28T02:40:27;100542.88;;;3.93;100.00
74524;BME280;63074;44.696;10.358;2023-02-28T02:46:01;100545.91;;;3.90;100.00
74524;BME280;63074;44.696;10.358;2023-02-28T02:48:33;100545.06;;;3.90;100.00
74524;BME280;63074;44.696;10.358;2023-02-28T02:51:03;100547.44;;;3.85;100.00
74524;BME280;63074;44.696;10.358;2023-02-28T02:53:31;100550.75;;;3.87;100.00
74524;BME280;63074;44.696;10.358;2023-02-28T02:55:59;100547.63;;;3.83;100.00
74524;BME280;63074;44.696;10.358;2023-02-28T02:58:30;100545.44;;;3.87;100.00
74524;BME280;63074;44.696;10.358;2023-02-28T03:01:01;100549.81;;;3.80;100.00
74524;BME280;63074;44.696;10.358;2023-02-28T03:03:29;100545.91;;;3.90;100.00
74524;BME280;63074;44.696;10.358;2023-02-28T03:05:58;100544.25;;;3.89;100.00
74524;BME280;63074;44.696;10.358;2023-02-28T03:08:26;100547.72;;;3.90;100.00
74524;BME280;63074;44.696;10.358;2023-02-28T03:10:57;100540.00;;;3.80;100.00
74524;BME280;63074;44.696;10.358;2023-02-28T03:16:45;100540.34;;;3.77;100.00
74524;BME280;63074;44.696;10.358;2023-02-28T03:19:37;100540.25;;;3.70;100.00
74524;BME280;63074;44.696;10.358;2023-02-28T03:27:29;100550.78;;;3.64;100.00
74524;BME280;63074;44.696;10.358;2023-02-28T03:30:14;100542.38;;;3.29;100.00
74524;BME280;63074;44.696;10.358;2023-02-28T03:32:45;100547.16;;;3.57;100.00
74524;BME280;63074;44.696;10.358;2023-02-28T03:35:21;100551.53;;;3.50;100.00
74524;BME280;63074;44.696;10.358;2023-02-28T03:37:52;100543.81;;;3.63;100.00
74524;BME280;63074;44.696;10.358;2023-02-28T03:40:25;100548.47;;;3.61;100.00
74524;BME280;63074;44.696;10.358;2023-02-28T03:42:58;100548.13;;;3.64;100.00
74524;BME280;63074;44.696;10.358;2023-02-28T03:45:31;100546.69;;;3.53;100.00
74524;BME280;63074;44.696;10.358;2023-02-28T03:50:55;100555.03;;;3.50;100.00
74524;BME280;63074;44.696;10.358;2023-02-28T03:53:34;100556.19;;;3.48;100.00
74524;BME280;63074;44.696;10.358;2023-02-28T03:56:20;100553.84;;;3.53;100.00
74524;BME280;63074;44.696;10.358;2023-02-28T03:59:04;100558.22;;;3.46;100.00
74524;BME280;63074;44.696;10.358;2023-02-28T04:01:38;100563.53;;;3.46;100.00
74524;BME280;63074;44.696;10.358;2023-02-28T04:04:05;100546.13;;;3.43;100.00
74524;BME280;63074;44.696;10.358;2023-02-28T04:06:33;100552.44;;;3.42;100.00
74524;BME280;63074;44.696;10.358;2023-02-28T04:09:00;100551.34;;;3.51;100.00
74524;BME280;63074;44.696;10.358;2023-02-28T04:14:01;100555.19;;;3.49;100.00
74524;BME280;63074;44.696;10.358;2023-02-28T04:16:29;100555.31;;;3.32;100.00
74524;BME280;63074;44.696;10.358;2023-02-28T04:18:55;100555.31;;;3.10;100.00
74524;BME280;63074;44.696;10.358;2023-02-28T04:23:57;100558.81;;;3.33;100.00
74524;BME280;63074;44.696;10.358;2023-02-28T04:26:30;100562.63;;;3.30;100.00
74524;BME280;63074;44.696;10.358;2023-02-28T04:28:56;100564.47;;;3.30;100.00
74524;BME280;63074;44.696;10.358;2023-02-28T04:31:22;100558.66;;;3.26;100.00
74524;BME280;63074;44.696;10.358;2023-02-28T04:33:49;100561.13;;;3.05;100.00
74524;BME280;63074;44.696;10.358;2023-02-28T04:36:15;100571.63;;;2.90;100.00
74524;BME280;63074;44.696;10.358;2023-02-28T04:38:44;100571.56;;;3.07;100.00
74524;BME280;63074;44.696;10.358;2023-02-28T04:41:14;100567.97;;;2.99;100.00
74524;BME280;63074;44.696;10.358;2023-02-28T04:43:40;100572.25;;;3.00;100.00
74524;BME280;63074;44.696;10.358;2023-02-28T04:46:07;100567.06;;;3.15;100.00
74524;BME280;63074;44.696;10.358;2023-02-28T04:48:36;100574.59;;;3.26;100.00
74524;BME280;63074;44.696;10.358;2023-02-28T04:51:08;100571.44;;;3.31;100.00
74524;BME280;63074;44.696;10.358;2023-02-28T04:53:35;100572.75;;;3.35;100.00
74524;BME280;63074;44.696;10.358;2023-02-28T04:56:02;100572.59;;;3.28;100.00
74524;BME280;63074;44.696;10.358;2023-02-28T04:58:28;100567.47;;;3.27;100.00
74524;BME280;63074;44.696;10.358;2023-02-28T05:01:02;100564.81;;;3.27;100.00
74524;BME280;63074;44.696;10.358;2023-02-28T05:03:28;100568.16;;;3.21;100.00
74524;BME280;63074;44.696;10.358;2023-02-28T05:05:55;100567.63;;;3.25;100.00
74524;BME280;63074;44.696;10.358;2023-02-28T05:08:21;100570.59;;;3.30;100.00
74524;BME280;63074;44.696;10.358;2023-02-28T05:10:47;100576.09;;;3.29;100.00
74524;BME280;63074;44.696;10.358;2023-02-28T05:13:13;100579.22;;;3.32;100.00
74524;BME280;63074;44.696;10.358;2023-02-28T05:15:39;100575.91;;;3.30;100.00
74524;BME280;63074;44.696;10.358;2023-02-28T05:18:07;100581.41;;;3.29;100.00
74524;BME280;63074;44.696;10.358;2023-02-28T05:20:33;100577.44;;;3.25;100.00
74524;BME280;63074;44.696;10.358;2023-02-28T05:23:00;100572.81;;;3.19;100.00
74524;BME280;63074;44.696;10.358;2023-02-28T05:25:27;100572.63;;;2.89;100.00
74524;BME280;63074;44.696;10.358;2023-02-28T05:27:53;100574.84;;;3.17;100.00
74524;BME280;63074;44.696;10.358;2023-02-28T05:30:19;100576.59;;;3.24;100.00
74524;BME280;63074;44.696;10.358;2023-02-28T05:32:50;100589.72;;;3.26;100.00
74524;BME280;63074;44.696;10.358;2023-02-28T05:35:17;100575.13;;;3.22;100.00
74524;BME280;63074;44.696;10.358;2023-02-28T05:37:44;100576.44;;;3.26;100.00
74524;BME280;63074;44.696;10.358;2023-02-28T05:40:10;100578.44;;;3.24;100.00
74524;BME280;63074;44.696;10.358;2023-02-28T05:42:37;100573.31;;;3.22;100.00
74524;BME280;63074;44.696;10.358;2023-02-28T05:45:05;100579.44;;;3.23;100.00
74524;BME280;63074;44.696;10.358;2023-02-28T05:47:32;100581.75;;;3.26;100.00
74524;BME280;63074;44.696;10.358;2023-02-28T05:49:59;100593.81;;;3.05;100.00
74524;BME280;63074;44.696;10.358;2023-02-28T05:52:26;100593.00;;;3.05;100.00
74524;BME280;63074;44.696;10.358;2023-02-28T05:54:52;100591.88;;;2.52;100.00
74524;BME280;63074;44.696;10.358;2023-02-28T05:57:18;100588.56;;;2.34;100.00
74524;BME280;63074;44.696;10.358;2023-02-28T05:59:45;100590.22;;;2.35;100.00
74524;BME280;63074;44.696;10.358;2023-02-28T06:02:16;100586.75;;;2.43;100.00
74524;BME280;63074;44.696;10.358;2023-02-28T06:04:43;100589.75;;;2.31;100.00
74524;BME280;63074;44.696;10.358;2023-02-28T06:07:10;100591.59;;;2.31;100.00
74524;BME280;63074;44.696;10.358;2023-02-28T06:09:36;100595.91;;;2.24;100.00
74524;BME280;63074;44.696;10.358;2023-02-28T06:12:04;100603.53;;;2.27;100.00
74524;BME280;63074;44.696;10.358;2023-02-28T06:14:32;100600.34;;;2.48;100.00
74524;BME280;63074;44.696;10.358;2023-02-28T06:16:59;100605.81;;;2.46;100.00
74524;BME280;63074;44.696;10.358;2023-02-28T06:19:26;100601.63;;;2.60;100.00
74524;BME280;63074;44.696;10.358;2023-02-28T06:21:53;100610.38;;;2.77;100.00
74524;BME280;63074;44.696;10.358;2023-02-28T06:24:21;100614.91;;;2.99;100.00
74524;BME280;63074;44.696;10.358;2023-02-28T06:26:48;100615.44;;;2.94;100.00
74524;BME280;63074;44.696;10.358;2023-02-28T06:29:14;100621.88;;;3.00;100.00
74524;BME280;63074;44.696;10.358;2023-02-28T06:31:47;100625.19;;;3.02;100.00
74524;BME280;63074;44.696;10.358;2023-02-28T06:34:14;100629.25;;;2.82;100.00
74524;BME280;63074;44.696;10.358;2023-02-28T06:36:41;100628.19;;;2.52;100.00
74524;BME280;63074;44.696;10.358;2023-02-28T06:39:08;100632.50;;;2.45;100.00
74524;BME280;63074;44.696;10.358;2023-02-28T06:41:35;100636.50;;;2.24;100.00
74524;BME280;63074;44.696;10.358;2023-02-28T06:44:12;100642.16;;;2.13;100.00
74524;BME280;63074;44.696;10.358;2023-02-28T06:46:40;100652.75;;;2.29;100.00
74524;BME280;63074;44.696;10.358;2023-02-28T06:49:07;100651.22;;;2.43;100.00
74524;BME280;63074;44.696;10.358;2023-02-28T06:51:39;100658.38;;;2.34;100.00
74524;BME280;63074;44.696;10.358;2023-02-28T06:54:07;100662.34;;;2.38;100.00
74524;BME280;63074;44.696;10.358;2023-02-28T06:56:36;100665.97;;;2.54;100.00
74524;BME280;63074;44.696;10.358;2023-02-28T06:59:03;100669.63;;;2.53;100.00
74524;BME280;63074;44.696;10.358;2023-02-28T07:01:29;100674.41;;;2.65;100.00
74524;BME280;63074;44.696;10.358;2023-02-28T07:03:57;100667.09;;;2.67;100.00
74524;BME280;63074;44.696;10.358;2023-02-28T07:06:24;100671.56;;;2.75;100.00
74524;BME280;63074;44.696;10.358;2023-02-28T07:08:52;100668.16;;;2.42;100.00
74524;BME280;63074;44.696;10.358;2023-02-28T07:11:19;100667.28;;;2.66;100.00
74524;BME280;63074;44.696;10.358;2023-02-28T07:13:47;100672.09;;;2.62;100.00
74524;BME280;63074;44.696;10.358;2023-02-28T07:16:13;100674.41;;;2.65;100.00
74524;BME280;63074;44.696;10.358;2023-02-28T07:18:39;100672.41;;;2.76;100.00
74524;BME280;63074;44.696;10.358;2023-02-28T07:21:08;100672.78;;;2.48;100.00
74524;BME280;63074;44.696;10.358;2023-02-28T07:23:35;100680.94;;;2.22;100.00
74524;BME280;63074;44.696;10.358;2023-02-28T07:26:01;100677.78;;;2.19;100.00
74524;BME280;63074;44.696;10.358;2023-02-28T07:28:28;100671.81;;;2.09;100.00
74524;BME280;63074;44.696;10.358;2023-02-28T07:30:54;100669.97;;;2.42;100.00
74524;BME280;63074;44.696;10.358;2023-02-28T07:33:20;100677.44;;;2.22;100.00
74524;BME280;63074;44.696;10.358;2023-02-28T07:35:46;100677.78;;;2.27;100.00
74524;BME280;63074;44.696;10.358;2023-02-28T07:38:12;100684.91;;;2.10;100.00
74524;BME280;63074;44.696;10.358;2023-02-28T07:40:39;100684.56;;;2.37;100.00
74524;BME280;63074;44.696;10.358;2023-02-28T07:43:06;100686.22;;;1.98;100.00
74524;BME280;63074;44.696;10.358;2023-02-28T07:45:32;100691.84;;;2.11;100.00
74524;BME280;63074;44.696;10.358;2023-02-28T07:48:00;100687.56;;;2.18;100.00
74524;BME280;63074;44.696;10.358;2023-02-28T07:50:27;100691.50;;;2.06;100.00
74524;BME280;63074;44.696;10.358;2023-02-28T07:52:59;100691.69;;;1.96;100.00
74524;BME280;63074;44.696;10.358;2023-02-28T07:55:26;100698.00;;;2.20;100.00
74524;BME280;63074;44.696;10.358;2023-02-28T07:57:52;100689.06;;;2.29;100.00
74524;BME280;63074;44.696;10.358;2023-02-28T08:00:18;100692.34;;;2.39;100.00
74524;BME280;63074;44.696;10.358;2023-02-28T08:02:45;100689.06;;;2.21;100.00
74524;BME280;63074;44.696;10.358;2023-02-28T08:05:11;100686.75;;;2.26;100.00
74524;BME280;63074;44.696;10.358;2023-02-28T08:07:37;100702.28;;;2.13;100.00
74524;BME280;63074;44.696;10.358;2023-02-28T08:10:04;100692.88;;;2.26;100.00
74524;BME280;63074;44.696;10.358;2023-02-28T08:12:31;100698.47;;;2.31;100.00
74524;BME280;63074;44.696;10.358;2023-02-28T08:14:57;100710.28;;;2.29;100.00
74524;BME280;63074;44.696;10.358;2023-02-28T08:17:23;100708.09;;;2.49;100.00
74524;BME280;63074;44.696;10.358;2023-02-28T08:19:50;100697.66;;;2.55;100.00
74524;BME280;63074;44.696;10.358;2023-02-28T08:22:16;100707.44;;;2.38;100.00
74524;BME280;63074;44.696;10.358;2023-02-28T08:24:42;100707.56;;;2.69;100.00
74524;BME280;63074;44.696;10.358;2023-02-28T08:27:09;100709.44;;;2.53;100.00
74524;BME280;63074;44.696;10.358;2023-02-28T08:29:38;100712.72;;;2.71;100.00
74524;BME280;63074;44.696;10.358;2023-02-28T08:32:05;100713.91;;;2.44;100.00
74524;BME280;63074;44.696;10.358;2023-02-28T08:34:32;100711.44;;;2.26;100.00
74524;BME280;63074;44.696;10.358;2023-02-28T08:36:58;100712.06;;;2.36;100.00
74524;BME280;63074;44.696;10.358;2023-02-28T08:39:24;100707.13;;;2.58;100.00
74524;BME280;63074;44.696;10.358;2023-02-28T08:41:50;100709.44;;;2.53;100.00
74524;BME280;63074;44.696;10.358;2023-02-28T08:44:16;100719.72;;;2.56;100.00
74524;BME280;63074;44.696;10.358;2023-02-28T08:46:42;100716.06;;;2.41;100.00
74524;BME280;63074;44.696;10.358;2023-02-28T08:49:10;100716.56;;;2.44;100.00
74524;BME280;63074;44.696;10.358;2023-02-28T08:51:37;100719.38;;;2.43;100.00
74524;BME280;63074;44.696;10.358;2023-02-28T08:54:04;100715.69;;;2.76;100.00
74524;BME280;63074;44.696;10.358;2023-02-28T08:56:30;100706.72;;;2.85;100.00
74524;BME280;63074;44.696;10.358;2023-02-28T08:58:57;100714.97;;;2.98;100.00
74524;BME280;63074;44.696;10.358;2023-02-28T09:01:25;100714.38;;;2.72;100.00
74524;BME280;63074;44.696;10.358;2023-02-28T09:03:54;100714.03;;;2.67;100.00
74524;BME280;63074;44.696;10.358;2023-02-28T09:06:22;100718.94;;;3.11;100.00
74524;BME280;63074;44.696;10.358;2023-02-28T09:08:49;100720.97;;;2.92;100.00
74524;BME280;63074;44.696;10.358;2023-02-28T09:11:16;100724.78;;;2.98;100.00
74524;BME280;63074;44.696;10.358;2023-02-28T09:13:42;100723.53;;;3.25;100.00
74524;BME280;63074;44.696;10.358;2023-02-28T09:16:11;100726.59;;;3.05;100.00
74524;BME280;63074;44.696;10.358;2023-02-28T09:18:38;100723.25;;;3.03;100.00
74524;BME280;63074;44.696;10.358;2023-02-28T09:21:06;100723.09;;;3.13;100.00
74524;BME280;63074;44.696;10.358;2023-02-28T09:23:33;100731.06;;;3.05;100.00
74524;BME280;63074;44.696;10.358;2023-02-28T09:26:00;100724.78;;;2.98;100.00
74524;BME280;63074;44.696;10.358;2023-02-28T09:28:26;100724.69;;;3.22;100.00
74524;BME280;63074;44.696;10.358;2023-02-28T09:30:54;100731.16;;;3.67;100.00
74524;BME280;63074;44.696;10.358;2023-02-28T09:33:21;100716.38;;;3.64;100.00
74524;BME280;63074;44.696;10.358;2023-02-28T09:35:48;100721.75;;;3.48;100.00
74524;BME280;63074;44.696;10.358;2023-02-28T09:38:15;100720.41;;;3.52;100.00
74524;BME280;63074;44.696;10.358;2023-02-28T09:40:51;100727.50;;;3.29;100.00
74524;BME280;63074;44.696;10.358;2023-02-28T09:43:21;100719.56;;;3.91;100.00
74524;BME280;63074;44.696;10.358;2023-02-28T09:48:57;100718.00;;;3.73;100.00
74524;BME280;63074;44.696;10.358;2023-02-28T09:51:51;100725.41;;;3.86;100.00
74524;BME280;63074;44.696;10.358;2023-02-28T09:54:22;100714.00;;;4.23;100.00
74524;BME280;63074;44.696;10.358;2023-02-28T10:00:07;100724.69;;;4.61;100.00
74524;BME280;63074;44.696;10.358;2023-02-28T10:05:39;100711.31;;;4.98;100.00
74524;BME280;63074;44.696;10.358;2023-02-28T10:10:47;100710.66;;;5.26;100.00
74524;BME280;63074;44.696;10.358;2023-02-28T10:19:16;100705.16;;;5.42;100.00
74524;BME280;63074;44.696;10.358;2023-02-28T10:24:48;100706.09;;;4.90;100.00
74524;BME280;63074;44.696;10.358;2023-02-28T10:27:18;100717.78;;;4.66;100.00
74524;BME280;63074;44.696;10.358;2023-02-28T10:29:47;100717.84;;;5.25;100.00
74524;BME280;63074;44.696;10.358;2023-02-28T10:32:20;100714.34;;;5.10;100.00
74524;BME280;63074;44.696;10.358;2023-02-28T10:35:28;100717.78;;;5.19;100.00
74524;BME280;63074;44.696;10.358;2023-02-28T10:37:58;100712.31;;;5.41;100.00
74524;BME280;63074;44.696;10.358;2023-02-28T10:40:30;100713.44;;;5.18;100.00
74524;BME280;63074;44.696;10.358;2023-02-28T10:43:00;100712.69;;;5.38;100.00
74524;BME280;63074;44.696;10.358;2023-02-28T10:45:28;100712.22;;;5.35;100.00
74524;BME280;63074;44.696;10.358;2023-02-28T10:48:01;100716.66;;;5.42;100.00
74524;BME280;63074;44.696;10.358;2023-02-28T10:50:56;100719.94;;;5.30;100.00
74524;BME280;63074;44.696;10.358;2023-02-28T10:58:31;100710.88;;;5.90;100.00
74524;BME280;63074;44.696;10.358;2023-02-28T11:00:59;100707.22;;;5.76;100.00
74524;BME280;63074;44.696;10.358;2023-02-28T11:03:35;100709.88;;;5.76;100.00
74524;BME280;63074;44.696;10.358;2023-02-28T11:06:15;100703.06;;;5.08;100.00
74524;BME280;63074;44.696;10.358;2023-02-28T11:11:28;100706.38;;;5.75;100.00
74524;BME280;63074;44.696;10.358;2023-02-28T11:14:15;100703.69;;;5.90;100.00
74524;BME280;63074;44.696;10.358;2023-02-28T11:16:43;100694.69;;;5.91;100.00
74524;BME280;63074;44.696;10.358;2023-02-28T11:19:24;100697.59;;;5.82;100.00
74524;BME280;63074;44.696;10.358;2023-02-28T11:22:09;100697.88;;;5.87;100.00
74524;BME280;63074;44.696;10.358;2023-02-28T11:24:44;100689.44;;;5.47;100.00
74524;BME280;63074;44.696;10.358;2023-02-28T11:30:00;100689.34;;;6.13;100.00
74524;BME280;63074;44.696;10.358;2023-02-28T11:32:29;100687.91;;;5.74;100.00
74524;BME280;63074;44.696;10.358;2023-02-28T11:37:39;100670.34;;;6.22;100.00
74524;BME280;63074;44.696;10.358;2023-02-28T11:40:15;100678.28;;;6.16;100.00
74524;BME280;63074;44.696;10.358;2023-02-28T11:48:32;100668.34;;;5.88;100.00
74524;BME280;63074;44.696;10.358;2023-02-28T11:51:27;100667.19;;;6.40;100.00
74524;BME280;63074;44.696;10.358;2023-02-28T11:56:48;100660.00;;;6.62;100.00
74524;BME280;63074;44.696;10.358;2023-02-28T11:59:35;100659.88;;;6.49;100.00
74524;BME280;63074;44.696;10.358;2023-02-28T12:02:24;100661.97;;;6.81;100.00
74524;BME280;63074;44.696;10.358;2023-02-28T12:24:19;100621.03;;;6.18;100.00
74524;BME280;63074;44.696;10.358;2023-02-28T12:26:52;100614.81;;;6.32;100.00
74524;BME280;63074;44.696;10.358;2023-02-28T12:29:55;100614.91;;;6.80;100.00
74524;BME280;63074;44.696;10.358;2023-02-28T12:32:39;100602.78;;;6.50;100.00
74524;BME280;63074;44.696;10.358;2023-02-28T12:37:40;100599.75;;;6.25;100.00
74524;BME280;63074;44.696;10.358;2023-02-28T12:40:21;100593.00;;;6.29;100.00
74524;BME280;63074;44.696;10.358;2023-02-28T12:42:58;100586.47;;;6.38;100.00
74524;BME280;63074;44.696;10.358;2023-02-28T12:48:07;100589.88;;;6.88;100.00
74524;BME280;63074;44.696;10.358;2023-02-28T12:50:34;100588.78;;;7.30;100.00
74524;BME280;63074;44.696;10.358;2023-02-28T13:01:27;100577.00;;;6.63;100.00
74524;BME280;63074;44.696;10.358;2023-02-28T13:10:00;100564.63;;;6.97;100.00
74524;BME280;63074;44.696;10.358;2023-02-28T13:12:28;100565.50;;;7.10;100.00
74524;BME280;63074;44.696;10.358;2023-02-28T13:15:24;100559.06;;;5.95;100.00
74524;BME280;63074;44.696;10.358;2023-02-28T13:17:55;100554.75;;;5.94;100.00
74524;BME280;63074;44.696;10.358;2023-02-28T13:20:26;100555.97;;;5.91;100.00
74524;BME280;63074;44.696;10.358;2023-02-28T13:22:54;100551.72;;;6.66;100.00
74524;BME280;63074;44.696;10.358;2023-02-28T13:28:03;100547.63;;;6.63;100.00
74524;BME280;63074;44.696;10.358;2023-02-28T13:33:32;100541.81;;;6.53;100.00
74524;BME280;63074;44.696;10.358;2023-02-28T13:38:39;100539.59;;;6.57;100.00
74524;BME280;63074;44.696;10.358;2023-02-28T13:44:36;100533.28;;;6.36;100.00
74524;BME280;63074;44.696;10.358;2023-02-28T13:49:30;100519.59;;;6.87;100.00
74524;BME280;63074;44.696;10.358;2023-02-28T13:57:44;100523.09;;;6.88;100.00
74524;BME280;63074;44.696;10.358;2023-02-28T14:06:10;100505.53;;;7.33;100.00
74524;BME280;63074;44.696;10.358;2023-02-28T14:11:49;100498.97;;;7.82;97.91
74524;BME280;63074;44.696;10.358;2023-02-28T14:17:16;100498.13;;;8.14;100.00
74524;BME280;63074;44.696;10.358;2023-02-28T14:19:45;100501.44;;;7.70;100.00
74524;BME280;63074;44.696;10.358;2023-02-28T14:38:56;100478.22;;;13.02;65.24
74524;BME280;63074;44.696;10.358;2023-02-28T14:41:33;100481.69;;;12.85;64.16
74524;BME280;63074;44.696;10.358;2023-02-28T14:44:21;100485.06;;;10.33;72.59
74524;BME280;63074;44.696;10.358;2023-02-28T14:46:50;100486.28;;;8.61;82.66
74524;BME280;63074;44.696;10.358;2023-02-28T14:49:19;100480.00;;;8.09;93.21
74524;BME280;63074;44.696;10.358;2023-02-28T14:51:50;100490.13;;;7.48;97.53
74524;BME280;63074;44.696;10.358;2023-02-28T14:54:27;100485.41;;;7.43;97.95
74524;BME280;63074;44.696;10.358;2023-02-28T14:56:54;100480.41;;;8.13;96.53
74524;BME280;63074;44.696;10.358;2023-02-28T14:59:29;100473.25;;;7.48;100.00
74524;BME280;63074;44.696;10.358;2023-02-28T15:04:51;100482.53;;;6.71;100.00
74524;BME280;63074;44.696;10.358;2023-02-28T15:07:17;100482.50;;;6.64;100.00
74524;BME280;63074;44.696;10.358;2023-02-28T15:09:44;100472.94;;;6.96;100.00
74524;BME280;63074;44.696;10.358;2023-02-28T15:12:14;100479.38;;;6.54;100.00
74524;BME280;63074;44.696;10.358;2023-02-28T15:14:44;100485.66;;;6.40;100.00
74524;BME280;63074;44.696;10.358;2023-02-28T15:17:23;100473.44;;;6.18;100.00
74524;BME280;63074;44.696;10.358;2023-02-28T15:19:52;100474.69;;;6.22;100.00
74524;BME280;63074;44.696;10.358;2023-02-28T15:22:28;100476.06;;;6.46;100.00
74524;BME280;63074;44.696;10.358;2023-02-28T15:24:57;100462.97;;;5.88;100.00
74524;BME280;63074;44.696;10.358;2023-02-28T15:27:30;100478.53;;;6.06;100.00
74524;BME280;63074;44.696;10.358;2023-02-28T15:30:00;100471.09;;;6.01;100.00
74524;BME280;63074;44.696;10.358;2023-02-28T15:32:33;100463.53;;;6.05;100.00
74524;BME280;63074;44.696;10.358;2023-02-28T15:35:27;100466.88;;;6.20;100.00
74524;BME280;63074;44.696;10.358;2023-02-28T15:38:02;100461.06;;;6.03;100.00
74524;BME280;63074;44.696;10.358;2023-02-28T15:40:32;100465.19;;;6.06;100.00
74524;BME280;63074;44.696;10.358;2023-02-28T15:43:14;100457.63;;;5.88;100.00
74524;BME280;63074;44.696;10.358;2023-02-28T15:46:11;100460.44;;;5.80;100.00
74524;BME280;63074;44.696;10.358;2023-02-28T15:48:57;100458.47;;;5.89;100.00
74524;BME280;63074;44.696;10.358;2023-02-28T15:51:43;100461.44;;;6.00;100.00